Time;durP1;ratioP1;P1;durP2;ratioP2;P2;SDS_P1;SDS_P2;PMS_P1;PMS_P2;Temp;Humidity;BMP_temperature;BMP_pressure;BME280_temperature;BME280_humidity;BME280_pressure;Samples;Min_cycle;Max_cycle;Signal;HPM_P1;HPM_P2
2023/11/27 00:01:19;;;;;;;37.90;16.17;;;2.40;99.90;;;;;;5024845;28;20222;-48
2023/11/27 00:03:46;;;;;;;33.80;16.83;;;2.40;99.90;;;;;;5047339;28;20930;-48
2023/11/27 00:06:12;;;;;;;36.47;15.97;;;2.40;99.90;;;;;;5056409;28;20190;-47
2023/11/27 00:08:39;;;;;;;34.20;14.93;;;2.50;99.90;;;;;;5058450;28;20194;-52
2023/11/27 00:11:07;;;;;;;29.67;15.97;;;2.50;99.90;;;;;;5061167;28;20626;-46
2023/11/27 00:13:33;;;;;;;28.63;14.33;;;2.50;99.90;;;;;;5058894;28;20280;-51
2023/11/27 00:16:00;;;;;;;25.97;14.60;;;2.40;99.90;;;;;;5033915;28;20198;-48
2023/11/27 00:18:28;;;;;;;25.97;13.90;;;2.50;99.90;;;;;;5058434;28;20245;-48
2023/11/27 00:20:55;;;;;;;28.70;14.03;;;2.50;99.90;;;;;;5054092;28;20202;-46
2023/11/27 00:23:23;;;;;;;27.13;15.03;;;2.50;99.90;;;;;;5045770;28;20229;-49
2023/11/27 00:25:50;;;;;;;26.50;14.70;;;2.50;99.90;;;;;;5058571;28;20291;-46
2023/11/27 00:28:18;;;;;;;31.87;14.73;;;2.50;99.90;;;;;;5059276;28;20199;-47
2023/11/27 00:30:45;;;;;;;28.20;13.73;;;2.50;99.90;;;;;;5029234;28;20373;-49
2023/11/27 00:33:12;;;;;;;25.97;13.17;;;2.50;99.90;;;;;;5062129;28;20588;-52
2023/11/27 00:35:40;;;;;;;23.00;13.23;;;2.50;99.90;;;;;;5048425;28;20665;-51
2023/11/27 00:38:08;;;;;;;29.57;13.20;;;2.50;99.90;;;;;;5050950;28;20199;-48
2023/11/27 00:40:37;;;;;;;22.97;12.63;;;2.50;99.90;;;;;;5056557;28;20203;-49
2023/11/27 00:43:05;;;;;;;19.13;12.37;;;2.50;99.90;;;;;;5060043;28;20606;-45
2023/11/27 00:45:32;;;;;;;23.80;12.63;;;2.50;99.90;;;;;;5043191;28;20191;-49
2023/11/27 00:48:00;;;;;;;20.63;12.27;;;2.50;99.90;;;;;;5044862;28;20287;-48
2023/11/27 00:50:27;;;;;;;24.77;13.10;;;2.50;99.90;;;;;;5048746;28;20694;-48
2023/11/27 00:52:55;;;;;;;25.77;13.13;;;2.40;99.90;;;;;;5057622;28;20313;-47
2023/11/27 00:55:22;;;;;;;20.30;12.83;;;2.50;99.90;;;;;;5049876;28;20761;-48
2023/11/27 00:57:48;;;;;;;24.43;13.80;;;2.50;99.90;;;;;;5043698;28;20261;-47
2023/11/27 01:00:17;;;;;;;27.97;13.43;;;2.50;99.90;;;;;;5052310;28;20568;-45
2023/11/27 01:02:45;;;;;;;23.80;13.30;;;2.50;99.90;;;;;;5027797;28;20202;-46
2023/11/27 01:05:14;;;;;;;20.00;12.67;;;2.50;99.90;;;;;;5060413;28;20207;-46
2023/11/27 01:07:41;;;;;;;21.37;12.67;;;2.50;99.90;;;;;;5045630;28;20937;-48
2023/11/27 01:10:10;;;;;;;32.63;14.27;;;2.50;99.90;;;;;;5055025;28;20217;-46
2023/11/27 01:12:42;;;;;;;27.27;13.43;;;2.50;99.90;;;;;;5057027;28;20332;-49
2023/11/27 01:15:11;;;;;;;22.20;12.47;;;2.40;99.90;;;;;;5065038;28;20595;-48
2023/11/27 01:17:38;;;;;;;20.93;12.63;;;2.50;99.90;;;;;;5032269;28;20279;-51
2023/11/27 01:20:07;;;;;;;25.70;12.50;;;2.50;99.90;;;;;;5063842;28;20243;-46
2023/11/27 01:22:34;;;;;;;24.77;12.90;;;2.50;99.90;;;;;;5050415;28;20664;-51
2023/11/27 01:25:01;;;;;;;23.20;12.57;;;2.50;99.90;;;;;;5064991;28;20297;-47
2023/11/27 01:27:29;;;;;;;24.60;12.93;;;2.50;99.90;;;;;;5062864;28;20202;-49
2023/11/27 01:29:56;;;;;;;24.97;14.23;;;2.50;99.90;;;;;;5062308;28;20195;-51
2023/11/27 01:32:24;;;;;;;22.27;12.83;;;2.50;99.90;;;;;;5032593;28;20256;-51
2023/11/27 01:34:51;;;;;;;21.80;11.83;;;2.50;99.90;;;;;;5061987;28;20832;-48
2023/11/27 01:37:18;;;;;;;23.27;12.47;;;2.50;99.90;;;;;;5064133;28;20253;-50
2023/11/27 01:39:45;;;;;;;24.77;12.43;;;2.50;99.90;;;;;;5051856;28;20186;-47
2023/11/27 01:42:12;;;;;;;22.53;12.30;;;2.50;99.90;;;;;;5064712;28;20256;-46
2023/11/27 01:44:40;;;;;;;22.03;12.13;;;2.50;99.90;;;;;;5059425;28;20248;-48
2023/11/27 01:47:08;;;;;;;22.43;12.97;;;2.60;99.90;;;;;;5064818;28;20294;-46
2023/11/27 01:49:35;;;;;;;23.93;12.30;;;2.60;99.90;;;;;;5033261;28;20539;-52
2023/11/27 01:52:02;;;;;;;22.27;12.10;;;2.60;99.90;;;;;;5063171;28;20844;-45
2023/11/27 01:54:30;;;;;;;22.10;12.13;;;2.60;99.90;;;;;;5051288;28;20242;-49
2023/11/27 01:56:59;;;;;;;21.83;12.80;;;2.60;99.90;;;;;;5063556;28;20191;-47
2023/11/27 01:59:26;;;;;;;26.13;12.77;;;2.60;99.90;;;;;;5057879;28;20206;-49
2023/11/27 02:01:56;;;;;;;18.10;11.40;;;2.60;99.90;;;;;;5059948;28;20194;-49
2023/11/27 02:04:22;;;;;;;20.27;11.27;;;2.60;99.90;;;;;;5033172;28;20230;-53
2023/11/27 02:06:50;;;;;;;19.33;12.03;;;2.70;99.90;;;;;;5061411;28;20244;-50
2023/11/27 02:09:17;;;;;;;21.80;12.30;;;2.70;99.90;;;;;;5052324;28;20202;-51
2023/11/27 02:11:47;;;;;;;22.33;13.10;;;2.70;99.90;;;;;;5060252;28;20295;-48
2023/11/27 02:14:15;;;;;;;24.93;12.73;;;2.70;99.90;;;;;;5061684;28;20242;-49
2023/11/27 02:16:43;;;;;;;22.83;12.47;;;2.70;99.90;;;;;;5059026;28;20248;-47
2023/11/27 02:19:12;;;;;;;22.57;12.60;;;2.70;99.90;;;;;;5035433;28;20230;-49
2023/11/27 02:21:38;;;;;;;25.43;13.87;;;2.70;99.90;;;;;;5059789;28;20195;-49
2023/11/27 02:24:07;;;;;;;21.50;13.27;;;2.70;99.90;;;;;;5060530;28;20211;-46
2023/11/27 02:26:34;;;;;;;25.10;12.80;;;2.70;99.90;;;;;;5047473;28;20198;-49
2023/11/27 02:29:01;;;;;;;20.57;12.27;;;2.70;99.90;;;;;;5062219;28;20218;-52
2023/11/27 02:31:28;;;;;;;23.80;13.93;;;2.60;99.90;;;;;;5060154;28;20203;-51
2023/11/27 02:33:55;;;;;;;20.07;12.83;;;2.60;99.90;;;;;;5060709;28;20786;-48
2023/11/27 02:36:22;;;;;;;21.63;12.63;;;2.60;99.90;;;;;;5034464;28;20202;-52
2023/11/27 02:38:49;;;;;;;21.20;11.70;;;2.60;99.90;;;;;;5060827;28;20928;-49
2023/11/27 02:41:17;;;;;;;19.23;12.00;;;2.60;99.90;;;;;;5051499;28;20278;-49
2023/11/27 02:43:44;;;;;;;20.23;11.63;;;2.60;99.90;;;;;;5058469;28;20221;-51
2023/11/27 02:46:11;;;;;;;17.50;11.50;;;2.50;99.90;;;;;;5061928;28;20210;-47
2023/11/27 02:48:36;;;;;;;22.13;11.67;;;2.60;99.90;;;;;;5058172;28;20187;-47
2023/11/27 02:51:04;;;;;;;21.20;13.20;;;2.50;99.90;;;;;;5035109;28;20226;-46
2023/11/27 02:53:31;;;;;;;20.97;11.97;;;2.50;99.90;;;;;;5060323;28;20211;-53
2023/11/27 02:55:58;;;;;;;20.33;11.93;;;2.60;99.90;;;;;;5052841;28;20570;-46
2023/11/27 02:58:26;;;;;;;18.50;11.30;;;2.50;99.90;;;;;;5061563;28;20875;-51
2023/11/27 03:00:53;;;;;;;21.83;11.17;;;2.60;99.90;;;;;;5059249;28;20941;-48
2023/11/27 03:03:20;;;;;;;16.50;11.57;;;2.60;99.90;;;;;;5060544;28;20199;-51
2023/11/27 03:05:47;;;;;;;18.20;11.30;;;2.50;99.90;;;;;;5032091;28;20214;-46
2023/11/27 03:08:14;;;;;;;18.33;11.00;;;2.50;99.90;;;;;;5058685;28;20627;-51
2023/11/27 03:10:41;;;;;;;14.37;10.17;;;2.60;99.90;;;;;;5061091;28;20229;-51
2023/11/27 03:13:10;;;;;;;17.40;11.03;;;2.50;99.90;;;;;;5045318;28;20836;-50
2023/11/27 03:15:38;;;;;;;17.23;9.87;;;2.50;99.90;;;;;;5061585;28;20610;-49
2023/11/27 03:18:05;;;;;;;17.50;10.57;;;2.50;99.90;;;;;;5059733;28;20206;-50
2023/11/27 03:20:32;;;;;;;17.00;10.60;;;2.50;99.90;;;;;;5028478;28;20614;-51
2023/11/27 03:23:00;;;;;;;15.57;9.90;;;2.50;99.90;;;;;;5056904;28;20206;-49
2023/11/27 03:25:26;;;;;;;15.23;9.73;;;2.50;99.90;;;;;;5060459;28;20227;-52
2023/11/27 03:27:53;;;;;;;16.17;10.10;;;2.50;99.90;;;;;;5050226;28;20202;-46
2023/11/27 03:30:20;;;;;;;17.47;10.37;;;2.60;99.90;;;;;;5062196;28;20251;-48
2023/11/27 03:32:50;;;;;;;16.47;10.13;;;2.50;99.90;;;;;;5059401;28;20857;-48
2023/11/27 03:35:17;;;;;;;14.73;9.57;;;2.50;99.90;;;;;;5060599;28;20239;-49
2023/11/27 03:37:44;;;;;;;17.20;9.97;;;2.50;99.90;;;;;;5032142;28;20191;-46
2023/11/27 03:40:11;;;;;;;13.67;9.17;;;2.50;99.90;;;;;;5062674;28;20529;-46
2023/11/27 03:42:38;;;;;;;15.00;9.20;;;2.50;99.90;;;;;;5045941;28;20275;-51
2023/11/27 03:45:06;;;;;;;12.77;8.70;;;2.50;99.90;;;;;;5062077;28;20724;-49
2023/11/27 03:47:32;;;;;;;14.50;8.80;;;2.50;99.90;;;;;;5059600;28;20209;-51
2023/11/27 03:50:00;;;;;;;11.90;8.33;;;2.50;99.90;;;;;;5060210;28;20214;-49
2023/11/27 03:52:30;;;;;;;15.60;9.73;;;2.50;99.90;;;;;;5033498;28;20222;-49
2023/11/27 03:54:56;;;;;;;12.73;8.87;;;2.50;99.90;;;;;;5059670;28;20303;-50
2023/11/27 03:57:24;;;;;;;13.03;8.60;;;2.50;99.90;;;;;;5054240;28;20272;-53
2023/11/27 03:59:51;;;;;;;13.27;7.87;;;2.40;99.90;;;;;;5052807;28;20222;-48
2023/11/27 04:02:18;;;;;;;12.60;8.17;;;2.40;99.90;;;;;;5060948;28;20190;-47
2023/11/27 04:04:45;;;;;;;11.67;7.57;;;2.40;99.90;;;;;;5056911;28;20256;-47
2023/11/27 04:07:13;;;;;;;10.67;7.10;;;2.40;99.90;;;;;;5034829;28;20206;-51
2023/11/27 04:09:40;;;;;;;13.10;8.50;;;2.40;99.90;;;;;;5058133;28;20703;-49
2023/11/27 04:12:07;;;;;;;14.53;7.73;;;2.30;99.90;;;;;;5060369;28;20206;-49
2023/11/27 04:14:34;;;;;;;11.87;7.70;;;2.30;99.90;;;;;;5048511;28;20223;-48
2023/11/27 04:17:03;;;;;;;13.57;7.73;;;2.30;99.90;;;;;;5060429;28;20213;-47
2023/11/27 04:19:30;;;;;;;12.67;7.43;;;2.30;99.90;;;;;;5059693;28;20195;-49
2023/11/27 04:21:57;;;;;;;12.13;8.00;;;2.30;99.90;;;;;;5031875;28;20223;-51
2023/11/27 04:24:25;;;;;;;10.53;7.33;;;2.30;99.90;;;;;;5060431;28;20229;-49
2023/11/27 04:26:52;;;;;;;14.33;8.20;;;2.30;99.90;;;;;;5060044;28;20816;-50
2023/11/27 04:29:20;;;;;;;15.03;8.50;;;2.30;99.90;;;;;;5051510;28;20216;-51
2023/11/27 04:31:46;;;;;;;10.47;7.17;;;2.30;99.90;;;;;;5058682;28;20264;-49
2023/11/27 04:34:14;;;;;;;12.90;7.50;;;2.30;99.90;;;;;;5048386;28;20317;-48
2023/11/27 04:36:41;;;;;;;13.53;8.00;;;2.30;99.90;;;;;;5062148;28;20190;-48
2023/11/27 04:39:10;;;;;;;12.13;7.90;;;2.30;99.90;;;;;;5031337;28;20754;-49
2023/11/27 04:41:39;;;;;;;12.47;7.63;;;2.30;99.90;;;;;;5061655;28;20244;-47
2023/11/27 04:44:07;;;;;;;12.33;7.37;;;2.30;99.90;;;;;;5051054;28;20234;-48
2023/11/27 04:46:34;;;;;;;10.63;7.07;;;2.30;99.90;;;;;;5058250;28;20290;-49
2023/11/27 04:49:00;;;;;;;12.03;7.60;;;2.30;99.90;;;;;;5060645;28;20190;-52
2023/11/27 04:51:28;;;;;;;14.43;7.93;;;2.30;99.90;;;;;;5053154;28;20198;-47
2023/11/27 04:53:55;;;;;;;16.03;8.70;;;2.30;99.90;;;;;;5034851;28;20309;-50
2023/11/27 04:56:22;;;;;;;13.97;7.20;;;2.30;99.90;;;;;;5055736;28;20992;-50
2023/11/27 04:58:50;;;;;;;10.70;6.80;;;2.30;99.90;;;;;;5064957;28;20313;-47
2023/11/27 05:01:16;;;;;;;12.90;7.77;;;2.30;99.90;;;;;;5050030;28;20583;-49
2023/11/27 05:03:43;;;;;;;9.27;6.53;;;2.30;99.90;;;;;;5064006;28;20206;-45
2023/11/27 05:06:15;;;;;;;13.33;7.60;;;2.40;99.90;;;;;;5061046;28;20198;-52
2023/11/27 05:08:42;;;;;;;14.33;7.60;;;2.40;99.90;;;;;;5036888;28;20194;-48
2023/11/27 05:11:08;;;;;;;10.73;6.77;;;2.30;99.90;;;;;;5056855;28;20199;-48
2023/11/27 05:13:35;;;;;;;10.77;6.47;;;2.40;99.90;;;;;;5063943;28;20302;-48
2023/11/27 05:16:04;;;;;;;10.93;6.83;;;2.40;99.90;;;;;;5044345;28;20226;-51
2023/11/27 05:18:31;;;;;;;9.73;6.73;;;2.40;99.90;;;;;;5059336;28;20522;-46
2023/11/27 05:20:57;;;;;;;12.50;7.30;;;2.40;99.90;;;;;;5059295;28;20256;-48
2023/11/27 05:23:24;;;;;;;11.90;6.73;;;2.40;99.90;;;;;;5033969;28;20285;-44
2023/11/27 05:25:51;;;;;;;9.67;6.13;;;2.40;99.90;;;;;;5036828;28;20281;-46
2023/11/27 05:28:18;;;;;;;12.20;6.57;;;2.40;99.90;;;;;;5054014;28;20195;-46
2023/11/27 05:30:45;;;;;;;10.43;6.30;;;2.30;99.90;;;;;;5051607;28;20200;-45
2023/11/27 05:33:13;;;;;;;7.33;5.60;;;2.40;99.90;;;;;;5055159;28;20226;-46
2023/11/27 05:35:40;;;;;;;9.80;5.47;;;2.40;99.90;;;;;;5053220;28;20233;-45
2023/11/27 05:38:07;;;;;;;8.10;5.60;;;2.40;99.90;;;;;;5051451;28;20195;-45
2023/11/27 05:40:35;;;;;;;10.70;6.50;;;2.40;99.90;;;;;;5044524;28;20285;-48
2023/11/27 05:43:05;;;;;;;9.73;6.50;;;2.40;99.90;;;;;;5056053;28;20203;-48
2023/11/27 05:45:32;;;;;;;8.57;5.70;;;2.40;99.90;;;;;;5047093;28;20217;-49
2023/11/27 05:47:59;;;;;;;9.23;5.23;;;2.40;99.90;;;;;;5055544;28;20555;-48
2023/11/27 05:50:27;;;;;;;7.17;5.47;;;2.40;99.90;;;;;;5057443;28;20208;-47
2023/11/27 05:52:54;;;;;;;8.07;5.27;;;2.40;99.90;;;;;;5055588;28;20242;-48
2023/11/27 05:55:21;;;;;;;9.70;5.80;;;2.40;99.90;;;;;;5031682;28;20222;-46
2023/11/27 05:57:48;;;;;;;6.70;4.50;;;2.40;99.90;;;;;;5056974;28;20286;-45
2023/11/27 06:00:15;;;;;;;8.23;4.90;;;2.40;99.90;;;;;;5055245;28;20194;-49
2023/11/27 06:02:42;;;;;;;7.83;5.40;;;2.40;99.90;;;;;;5045329;28;20206;-46
2023/11/27 06:05:09;;;;;;;6.63;4.83;;;2.40;99.90;;;;;;5062799;28;20242;-47
2023/11/27 06:07:37;;;;;;;8.33;5.07;;;2.40;99.90;;;;;;5055053;28;21680;-47
2023/11/27 06:10:06;;;;;;;6.33;4.67;;;2.40;99.90;;;;;;5057472;28;20209;-46
2023/11/27 06:12:34;;;;;;;6.90;5.00;;;2.50;99.90;;;;;;5035866;28;20313;-46
2023/11/27 06:15:01;;;;;;;8.57;4.93;;;2.50;99.90;;;;;;5063806;28;20680;-45
2023/11/27 06:17:28;;;;;;;9.63;4.90;;;2.50;99.90;;;;;;5049506;28;20218;-47
2023/11/27 06:19:55;;;;;;;8.60;3.93;;;2.50;99.90;;;;;;5056693;28;20571;-49
2023/11/27 06:22:23;;;;;;;5.90;4.20;;;2.50;99.90;;;;;;5059300;28;20245;-47
2023/11/27 06:24:51;;;;;;;8.07;4.60;;;2.50;99.90;;;;;;5053481;28;20203;-47
2023/11/27 06:27:18;;;;;;;6.27;4.03;;;2.60;99.90;;;;;;5040313;28;20238;-47
2023/11/27 06:29:45;;;;;;;4.43;3.90;;;2.60;99.90;;;;;;5053311;28;20829;-45
2023/11/27 06:32:11;;;;;;;4.27;3.43;;;2.60;99.90;;;;;;5055360;28;20283;-48
2023/11/27 06:34:38;;;;;;;5.67;3.80;;;2.60;99.90;;;;;;5049062;28;20287;-46
2023/11/27 06:37:05;;;;;;;4.40;3.67;;;2.60;99.90;;;;;;5052123;28;20219;-45
2023/11/27 06:39:33;;;;;;;5.40;3.80;;;2.60;99.90;;;;;;5054535;28;20198;-44
2023/11/27 06:42:01;;;;;;;6.43;4.10;;;2.60;99.90;;;;;;5036849;28;20337;-50
2023/11/27 06:44:28;;;;;;;6.27;3.67;;;2.60;99.90;;;;;;5051374;28;20568;-47
2023/11/27 06:46:55;;;;;;;6.60;4.03;;;2.60;99.90;;;;;;5054585;28;20194;-47
2023/11/27 06:49:22;;;;;;;4.63;3.67;;;2.60;99.90;;;;;;5046066;28;20205;-46
2023/11/27 06:51:49;;;;;;;6.07;3.60;;;2.70;99.90;;;;;;5059564;28;20211;-48
2023/11/27 06:54:15;;;;;;;4.10;3.57;;;2.60;99.90;;;;;;5041493;28;20762;-45
2023/11/27 06:56:42;;;;;;;5.60;3.60;;;2.70;99.90;;;;;;5061643;28;20202;-49
2023/11/27 06:59:11;;;;;;;6.27;3.70;;;2.70;99.90;;;;;;5039144;28;20210;-47
2023/11/27 07:01:41;;;;;;;4.50;3.40;;;2.70;99.90;;;;;;5058634;28;20932;-47
2023/11/27 07:04:08;;;;;;;4.53;3.43;;;2.70;99.90;;;;;;5046794;28;20230;-48
2023/11/27 07:06:35;;;;;;;6.67;3.83;;;2.70;99.90;;;;;;5061424;28;20186;-46
2023/11/27 07:09:04;;;;;;;4.50;3.73;;;2.70;99.90;;;;;;5058649;28;20217;-46
2023/11/27 07:11:32;;;;;;;3.47;3.17;;;2.80;99.90;;;;;;5054633;28;20225;-45
2023/11/27 07:13:59;;;;;;;5.10;3.87;;;2.70;99.90;;;;;;5047416;28;20313;-47
2023/11/27 07:16:28;;;;;;;5.83;3.40;;;2.70;99.90;;;;;;5050260;28;20195;-49
2023/11/27 07:18:57;;;;;;;3.80;3.40;;;2.70;99.90;;;;;;5043375;28;20205;-47
2023/11/27 07:21:25;;;;;;;3.60;3.30;;;2.80;99.90;;;;;;5057196;28;20225;-50
2023/11/27 07:23:53;;;;;;;3.50;3.20;;;2.70;99.90;;;;;;5038298;28;20233;-47
2023/11/27 07:26:21;;;;;;;3.80;3.10;;;2.80;99.90;;;;;;5041165;28;20197;-45
2023/11/27 07:28:48;;;;;;;3.57;3.27;;;2.80;99.90;;;;;;5029469;28;20356;-48
2023/11/27 07:31:16;;;;;;;5.57;3.83;;;2.80;99.90;;;;;;5052621;28;20203;-43
2023/11/27 07:33:45;;;;;;;5.97;4.07;;;2.70;99.90;;;;;;5016787;28;20231;-47
2023/11/27 07:36:12;;;;;;;4.23;3.70;;;2.80;99.90;;;;;;5055171;28;20187;-47
2023/11/27 07:38:40;;;;;;;6.10;4.43;;;2.70;99.90;;;;;;5047017;28;20786;-50
2023/11/27 07:41:07;;;;;;;5.33;3.97;;;2.80;99.90;;;;;;5053913;28;20204;-52
2023/11/27 07:43:35;;;;;;;6.27;4.10;;;2.80;99.90;;;;;;5024457;28;20218;-50
2023/11/27 07:46:05;;;;;;;7.87;4.20;;;2.70;99.90;;;;;;5047028;28;20209;-50
2023/11/27 07:48:33;;;;;;;4.73;3.77;;;2.70;99.90;;;;;;5052241;28;20194;-53
2023/11/27 07:51:04;;;;;;;4.63;4.07;;;2.70;99.90;;;;;;5042165;28;20210;-49
2023/11/27 07:53:31;;;;;;;5.53;3.93;;;2.70;99.90;;;;;;5057344;28;20214;-48
2023/11/27 07:55:59;;;;;;;4.60;3.23;;;2.70;99.90;;;;;;5054055;28;20676;-49
2023/11/27 07:58:26;;;;;;;7.70;3.83;;;2.70;99.90;;;;;;5042962;28;20194;-47
2023/11/27 08:00:53;;;;;;;5.13;3.53;;;2.60;99.90;;;;;;5050162;28;20198;-47
2023/11/27 08:03:20;;;;;;;5.70;3.90;;;2.60;99.90;;;;;;5053216;28;20683;-49
2023/11/27 08:05:48;;;;;;;4.53;3.30;;;2.50;99.90;;;;;;5046970;28;20514;-49
2023/11/27 08:08:16;;;;;;;4.70;3.30;;;2.50;99.90;;;;;;5053885;28;20661;-46
2023/11/27 08:10:44;;;;;;;4.97;3.30;;;2.50;99.90;;;;;;5047001;28;20269;-46
2023/11/27 08:13:11;;;;;;;5.60;3.27;;;2.50;99.90;;;;;;5053981;28;20259;-50
2023/11/27 08:15:38;;;;;;;4.63;3.53;;;2.50;99.90;;;;;;5029615;28;20207;-47
2023/11/27 08:18:05;;;;;;;5.53;3.37;;;2.40;99.90;;;;;;5058225;28;20244;-47
2023/11/27 08:20:35;;;;;;;4.10;2.87;;;2.50;99.90;;;;;;5043368;28;20253;-48
2023/11/27 08:23:02;;;;;;;5.33;3.30;;;2.50;99.90;;;;;;5052706;28;20210;-47
2023/11/27 08:25:30;;;;;;;4.80;2.77;;;2.50;99.90;;;;;;5054290;28;20214;-46
2023/11/27 08:27:58;;;;;;;2.77;2.47;;;2.50;99.90;;;;;;5060637;28;20293;-47
2023/11/27 08:30:27;;;;;;;4.53;2.90;;;2.50;99.90;;;;;;5037871;28;20202;-45
2023/11/27 08:32:54;;;;;;;4.07;2.50;;;2.50;99.90;;;;;;5053240;28;20215;-48
2023/11/27 08:35:21;;;;;;;5.23;2.90;;;2.40;99.90;;;;;;5052338;28;20220;-51
2023/11/27 08:37:49;;;;;;;4.40;2.90;;;2.40;99.90;;;;;;5051856;28;20207;-46
2023/11/27 08:40:16;;;;;;;3.57;2.57;;;2.40;99.90;;;;;;5058041;28;20205;-46
2023/11/27 08:42:44;;;;;;;4.00;2.43;;;2.40;99.90;;;;;;5055957;28;20288;-48
2023/11/27 08:45:16;;;;;;;3.57;2.67;;;2.40;99.90;;;;;;5059075;28;20246;-46
2023/11/27 08:47:44;;;;;;;4.27;2.37;;;2.40;99.90;;;;;;5037539;28;20194;-48
2023/11/27 08:50:14;;;;;;;4.50;2.83;;;2.40;99.90;;;;;;5058448;28;20207;-47
2023/11/27 08:52:41;;;;;;;5.17;2.97;;;2.40;99.90;;;;;;5050021;28;20214;-47
2023/11/27 08:55:09;;;;;;;4.23;2.57;;;2.40;99.90;;;;;;5051288;28;20250;-46
2023/11/27 08:57:36;;;;;;;3.93;2.30;;;2.40;99.90;;;;;;5054415;28;20909;-46
2023/11/27 09:00:05;;;;;;;4.23;2.50;;;2.40;99.90;;;;;;5054050;28;20265;-47
2023/11/27 09:02:33;;;;;;;4.03;2.57;;;2.40;99.90;;;;;;5038471;28;20790;-47
2023/11/27 09:05:00;;;;;;;3.07;1.93;;;2.50;99.90;;;;;;5065080;28;20754;-47
2023/11/27 09:07:27;;;;;;;5.23;2.70;;;2.50;99.90;;;;;;5044737;28;20279;-51
2023/11/27 09:09:53;;;;;;;3.87;2.80;;;2.50;99.90;;;;;;5054834;28;20202;-46
2023/11/27 09:12:19;;;;;;;3.70;2.60;;;2.50;99.90;;;;;;5051394;28;20676;-46
2023/11/27 09:14:46;;;;;;;3.07;2.10;;;2.40;99.90;;;;;;5052832;28;20234;-47
2023/11/27 09:17:14;;;;;;;3.50;2.40;;;2.40;99.90;;;;;;5052006;28;20291;-46
2023/11/27 09:19:41;;;;;;;2.60;2.20;;;2.40;99.90;;;;;;5039313;28;20194;-47
2023/11/27 09:22:08;;;;;;;3.07;2.20;;;2.40;99.90;;;;;;5053275;28;20210;-50
2023/11/27 09:24:35;;;;;;;3.20;2.43;;;2.40;99.90;;;;;;5039870;28;20243;-48
2023/11/27 09:27:02;;;;;;;3.00;2.27;;;2.40;99.90;;;;;;5060105;28;20203;-47
2023/11/27 09:29:29;;;;;;;4.53;2.10;;;2.40;99.90;;;;;;5053462;28;20199;-46
2023/11/27 09:31:56;;;;;;;2.83;2.50;;;2.40;99.90;;;;;;5049135;28;20287;-49
2023/11/27 09:34:26;;;;;;;2.53;2.27;;;2.40;99.90;;;;;;5020456;28;20361;-50
2023/11/27 09:36:54;;;;;;;3.43;2.50;;;2.40;99.90;;;;;;5059846;28;20206;-46
2023/11/27 09:39:21;;;;;;;2.83;2.10;;;2.30;99.90;;;;;;5041946;28;20323;-48
2023/11/27 09:41:49;;;;;;;3.27;2.23;;;2.30;99.90;;;;;;5052597;28;20210;-46
2023/11/27 09:44:18;;;;;;;2.43;1.93;;;2.30;99.90;;;;;;5050593;28;20276;-50
2023/11/27 09:46:47;;;;;;;4.13;2.30;;;2.30;99.90;;;;;;5057322;28;20212;-46
2023/11/27 09:49:17;;;;;;;3.57;2.30;;;2.30;99.90;;;;;;5036560;28;20202;-44
2023/11/27 09:51:52;;;;;;;4.17;2.70;;;2.30;99.90;;;;;;5050126;28;20618;-45
2023/11/27 09:54:25;;;;;;;3.00;2.23;;;2.30;99.90;;;;;;5040828;28;20222;-49
2023/11/27 09:56:56;;;;;;;3.47;2.10;;;2.20;99.90;;;;;;5042018;28;20199;-48
2023/11/27 09:59:24;;;;;;;2.87;2.13;;;2.30;99.90;;;;;;5048966;28;21186;-45
2023/11/27 10:01:53;;;;;;;2.13;1.93;;;2.20;99.90;;;;;;5065077;28;20790;-47
2023/11/27 10:04:21;;;;;;;3.43;2.60;;;2.10;99.90;;;;;;5022706;28;20235;-47
2023/11/27 10:06:51;;;;;;;3.37;2.20;;;2.20;99.90;;;;;;5061644;28;20210;-46
2023/11/27 10:09:20;;;;;;;2.50;2.10;;;2.10;99.90;;;;;;5039567;28;20267;-51
2023/11/27 10:11:51;;;;;;;3.07;2.57;;;2.10;99.90;;;;;;5049795;28;20661;-47
2023/11/27 10:14:19;;;;;;;3.70;2.47;;;2.10;99.90;;;;;;5051784;28;20285;-49
2023/11/27 10:16:49;;;;;;;4.57;2.73;;;2.10;99.90;;;;;;5057636;28;20585;-46
2023/11/27 10:19:19;;;;;;;4.33;3.23;;;2.10;99.90;;;;;;5052912;28;20281;-48
2023/11/27 10:21:47;;;;;;;4.60;2.77;;;2.10;99.90;;;;;;5035853;28;20217;-48
2023/11/27 10:24:16;;;;;;;2.83;2.20;;;2.10;99.90;;;;;;5040797;28;20253;-51
2023/11/27 10:26:45;;;;;;;3.90;2.83;;;2.00;99.90;;;;;;5054149;28;20580;-46
2023/11/27 10:29:15;;;;;;;2.67;2.37;;;2.00;99.90;;;;;;5059577;28;20645;-52
2023/11/27 10:31:45;;;;;;;3.07;2.20;;;2.00;99.90;;;;;;5052925;28;20211;-50
2023/11/27 10:34:13;;;;;;;3.80;2.70;;;2.10;99.90;;;;;;5053184;28;20305;-45
2023/11/27 10:36:40;;;;;;;3.43;2.60;;;2.00;99.90;;;;;;5035492;28;20202;-45
2023/11/27 10:39:14;;;;;;;3.03;2.70;;;2.10;99.90;;;;;;5056645;28;20203;-51
2023/11/27 10:41:46;;;;;;;3.07;2.60;;;2.10;99.90;;;;;;5059746;28;20673;-46
2023/11/27 10:44:15;;;;;;;6.50;2.60;;;2.10;99.90;;;;;;5051783;28;20221;-47
2023/11/27 10:46:44;;;;;;;2.90;2.10;;;2.10;99.90;;;;;;5053433;28;20199;-47
2023/11/27 10:49:14;;;;;;;3.10;2.40;;;2.10;99.90;;;;;;5054287;28;20209;-48
2023/11/27 10:51:44;;;;;;;2.73;2.43;;;2.10;99.90;;;;;;5030837;28;20217;-49
2023/11/27 10:54:15;;;;;;;3.23;2.70;;;2.10;99.90;;;;;;5059517;28;20272;-48
2023/11/27 10:56:46;;;;;;;3.83;2.10;;;2.10;99.90;;;;;;5053515;28;20564;-47
2023/11/27 10:59:17;;;;;;;2.90;2.63;;;2.20;99.90;;;;;;5048775;28;20194;-50
2023/11/27 11:01:46;;;;;;;5.00;2.83;;;2.20;99.90;;;;;;5052387;28;20191;-46
2023/11/27 11:04:23;;;;;;;7.27;2.80;;;2.20;99.90;;;;;;5052703;28;20214;-50
2023/11/27 11:06:56;;;;;;;3.43;2.60;;;2.20;99.90;;;;;;5034498;28;20218;-48
2023/11/27 11:09:25;;;;;;;3.00;2.47;;;2.20;99.90;;;;;;5056095;28;20281;-48
2023/11/27 11:11:55;;;;;;;3.13;2.83;;;2.20;99.90;;;;;;5052283;28;20223;-47
2023/11/27 11:14:26;;;;;;;3.50;2.43;;;2.20;99.90;;;;;;5042354;28;20312;-47
2023/11/27 11:17:07;;;;;;;3.93;2.47;;;2.20;99.90;;;;;;5061469;28;20727;-48
2023/11/27 11:19:45;;;;;;;3.43;2.70;;;2.20;99.90;;;;;;5044117;28;20207;-49
2023/11/27 11:22:30;;;;;;;4.07;2.87;;;2.20;99.90;;;;;;5045174;28;20206;-52
2023/11/27 11:25:09;;;;;;;2.40;2.20;;;2.20;99.90;;;;;;5057093;28;20742;-50
2023/11/27 11:27:45;;;;;;;3.47;2.43;;;2.20;99.90;;;;;;5047317;28;20198;-51
2023/11/27 11:30:15;;;;;;;2.90;2.60;;;2.20;99.90;;;;;;5047925;28;20264;-49
2023/11/27 11:32:44;;;;;;;3.20;2.47;;;2.20;99.90;;;;;;5052878;28;20560;-46
2023/11/27 11:35:12;;;;;;;3.47;2.40;;;2.30;99.90;;;;;;5055296;28;20521;-47
2023/11/27 11:37:47;;;;;;;4.57;2.80;;;2.30;99.90;;;;;;5038200;28;21162;-52
2023/11/27 11:40:15;;;;;;;3.00;2.50;;;2.20;99.90;;;;;;5059282;28;20205;-52
2023/11/27 11:42:45;;;;;;;2.80;2.57;;;2.20;99.90;;;;;;5040166;28;20202;-49
2023/11/27 11:45:17;;;;;;;3.77;2.80;;;2.30;99.90;;;;;;5047915;28;20222;-46
2023/11/27 11:47:51;;;;;;;2.33;2.10;;;2.30;99.90;;;;;;5061808;28;20282;-51
2023/11/27 11:50:30;;;;;;;3.93;3.03;;;2.20;99.90;;;;;;5051786;28;20203;-48
2023/11/27 11:52:58;;;;;;;3.07;2.50;;;2.30;99.90;;;;;;5033062;28;20575;-53
2023/11/27 11:55:32;;;;;;;3.53;2.80;;;2.30;99.90;;;;;;5053667;28;20218;-46
2023/11/27 11:58:06;;;;;;;2.60;2.17;;;2.30;99.90;;;;;;5046734;28;20651;-50
2023/11/27 12:00:43;;;;;;;3.07;2.47;;;2.30;99.90;;;;;;5051846;28;20369;-46
2023/11/27 12:03:15;;;;;;;3.17;2.60;;;2.30;99.90;;;;;;5043198;28;20210;-45
2023/11/27 12:05:46;;;;;;;3.87;3.50;;;2.30;99.90;;;;;;5058799;28;20193;-44
2023/11/27 12:08:14;;;;;;;3.43;2.80;;;2.30;99.90;;;;;;5022706;28;21119;-49
2023/11/27 12:10:42;;;;;;;2.97;2.37;;;2.30;99.90;;;;;;5060552;28;20201;-45
2023/11/27 12:13:12;;;;;;;3.67;2.47;;;2.30;99.90;;;;;;5046587;28;20924;-50
2023/11/27 12:15:41;;;;;;;2.73;2.47;;;2.30;99.90;;;;;;5057145;28;20206;-48
2023/11/27 12:18:09;;;;;;;4.53;2.60;;;2.40;99.90;;;;;;5047363;28;20859;-45
2023/11/27 12:20:37;;;;;;;3.17;2.67;;;2.40;99.90;;;;;;5048706;28;20199;-47
2023/11/27 12:23:06;;;;;;;4.63;2.77;;;2.40;99.90;;;;;;5046278;28;20206;-52
2023/11/27 12:25:33;;;;;;;3.93;3.20;;;2.40;99.90;;;;;;5032315;28;20688;-48
2023/11/27 12:28:02;;;;;;;3.70;3.03;;;2.40;99.90;;;;;;5043793;28;20222;-54
2023/11/27 12:30:31;;;;;;;5.77;3.17;;;2.50;99.90;;;;;;5057557;28;20234;-46
2023/11/27 12:33:01;;;;;;;3.73;3.10;;;2.50;99.90;;;;;;5041091;28;20222;-53
2023/11/27 12:35:29;;;;;;;4.07;2.80;;;2.40;99.90;;;;;;5050758;28;20234;-46
2023/11/27 12:37:56;;;;;;;4.70;3.03;;;2.50;99.90;;;;;;5059467;28;20212;-54
2023/11/27 12:40:33;;;;;;;4.53;2.70;;;2.50;99.90;;;;;;5031801;28;20199;-48
2023/11/27 12:43:01;;;;;;;4.53;2.87;;;2.50;99.90;;;;;;5048774;28;20202;-53
2023/11/27 12:45:31;;;;;;;3.20;2.90;;;2.50;99.90;;;;;;5060131;28;20214;-49
2023/11/27 12:47:59;;;;;;;3.57;2.87;;;2.50;99.90;;;;;;5048453;28;20198;-53
2023/11/27 12:50:30;;;;;;;4.63;2.90;;;2.50;99.90;;;;;;5051593;28;20222;-47
2023/11/27 12:53:03;;;;;;;3.53;3.00;;;2.50;99.90;;;;;;5053597;28;20194;-54
2023/11/27 12:55:36;;;;;;;4.67;3.03;;;2.60;99.90;;;;;;5029055;28;20206;-46